Terminal Aerodrome Forecast
Issued by NWS

Home | Current Version | Previous Version | Text Only | Print | Product List | Glossary On
Versions: 1 2 3 4 5 6 7 8 9 10 11 12 13 14 15 16 17 18
000
FTUS43 KDVN 170520
TAFBRL
TAF
KBRL 170520Z 1706/1806 05005KT P6SM BKN250
     FM171000 10006KT P6SM OVC150
     FM171600 VRB04KT 6SM -RA BR OVC035
     FM180000 VRB03KT 4SM BR OVC015=

USA.gov is the U.S. government's official web portal to all federal, state and local government web resources and services.